createdAt,value
2023-01-27T00:00:30.884Z,2.70
2023-01-27T00:01:30.877Z,2.90
2023-01-27T00:02:30.911Z,2.80
2023-01-27T00:03:30.893Z,3.00
2023-01-27T00:04:30.853Z,2.70
2023-01-27T00:05:30.816Z,3.10
2023-01-27T00:06:30.834Z,2.80
2023-01-27T00:07:30.805Z,3.00
2023-01-27T00:08:30.815Z,2.70
2023-01-27T00:09:30.781Z,3.00
2023-01-27T00:10:30.799Z,2.80
2023-01-27T00:11:30.755Z,2.90
2023-01-27T00:12:30.777Z,3.60
2023-01-27T00:13:30.732Z,3.50
2023-01-27T00:14:30.752Z,2.70
2023-01-27T00:15:30.722Z,3.60
2023-01-27T00:16:30.728Z,3.30
2023-01-27T00:17:30.697Z,2.60
2023-01-27T00:18:30.711Z,3.00
2023-01-27T00:19:30.669Z,2.80
2023-01-27T00:20:30.673Z,3.10
2023-01-27T00:21:30.669Z,3.80
2023-01-27T00:22:30.657Z,3.50
2023-01-27T00:23:30.634Z,3.40
2023-01-27T00:24:30.646Z,3.20
2023-01-27T00:25:30.615Z,3.40
2023-01-27T00:26:30.627Z,2.90
2023-01-27T00:27:30.612Z,3.10
2023-01-27T00:28:30.608Z,3.20
2023-01-27T00:29:30.567Z,2.90
2023-01-27T00:30:30.602Z,3.10
2023-01-27T00:31:30.626Z,3.10
2023-01-27T00:32:30.551Z,3.30
2023-01-27T00:33:30.526Z,3.50
2023-01-27T00:34:30.553Z,3.00
2023-01-27T00:35:30.508Z,2.70
2023-01-27T00:36:30.522Z,3.40
2023-01-27T00:37:30.513Z,3.10
2023-01-27T00:38:30.491Z,3.30
2023-01-27T00:39:30.470Z,2.90
2023-01-27T00:40:30.472Z,3.30
2023-01-27T00:41:30.449Z,3.10
2023-01-27T00:42:30.466Z,3.90
2023-01-27T00:43:30.427Z,2.70
2023-01-27T00:44:30.435Z,3.20
2023-01-27T00:45:30.412Z,2.70
2023-01-27T00:46:30.463Z,2.80
2023-01-27T00:47:30.395Z,3.10
2023-01-27T00:48:30.390Z,2.90
2023-01-27T00:49:30.365Z,2.90
2023-01-27T00:50:30.377Z,2.70
2023-01-27T00:51:30.347Z,3.10
2023-01-27T00:52:30.356Z,3.30
2023-01-27T00:53:30.336Z,3.40
2023-01-27T00:54:30.345Z,2.90
2023-01-27T00:55:30.303Z,3.10
2023-01-27T00:56:30.330Z,2.80
2023-01-27T00:57:30.282Z,3.20
2023-01-27T00:58:30.304Z,2.90
2023-01-27T00:59:30.281Z,3.10
2023-01-27T01:00:30.281Z,3.00
2023-01-27T01:01:30.267Z,3.60
2023-01-27T01:02:30.301Z,3.00
2023-01-27T01:03:30.237Z,3.70
2023-01-27T01:04:30.226Z,3.70
2023-01-27T01:05:30.199Z,2.90
2023-01-27T01:06:30.222Z,3.30
2023-01-27T01:07:30.183Z,3.00
2023-01-27T01:08:30.201Z,3.50
2023-01-27T01:09:30.168Z,2.90
2023-01-27T01:10:30.166Z,3.30
2023-01-27T01:11:30.137Z,2.90
2023-01-27T01:12:30.155Z,3.60
2023-01-27T01:13:30.127Z,3.30
2023-01-27T01:14:30.156Z,2.60
2023-01-27T01:15:30.104Z,3.20
2023-01-27T01:16:30.219Z,3.60
2023-01-27T01:17:30.084Z,3.70
2023-01-27T01:18:30.084Z,4.00
2023-01-27T01:19:30.058Z,3.10
2023-01-27T01:20:30.091Z,3.00
2023-01-27T01:21:30.051Z,3.30
2023-01-27T01:22:30.061Z,3.70
2023-01-27T01:23:30.036Z,3.00
2023-01-27T01:24:30.073Z,3.50
2023-01-27T01:25:30.006Z,3.70
2023-01-27T01:26:30.010Z,3.80
2023-01-27T01:27:29.978Z,3.00
2023-01-27T01:28:29.981Z,3.50
2023-01-27T01:29:29.974Z,3.50
2023-01-27T01:30:29.989Z,3.70
2023-01-27T01:31:29.975Z,3.80
2023-01-27T01:32:29.939Z,2.80
2023-01-27T01:33:29.921Z,3.40
2023-01-27T01:34:29.922Z,2.90
2023-01-27T01:35:29.906Z,4.00
2023-01-27T01:36:29.926Z,4.00
2023-01-27T01:37:29.873Z,3.30
2023-01-27T01:38:29.875Z,3.20
2023-01-27T01:39:29.855Z,4.20
2023-01-27T01:40:29.870Z,3.70
2023-01-27T01:41:29.839Z,4.40
2023-01-27T01:42:29.855Z,3.90
2023-01-27T01:43:29.812Z,3.90
2023-01-27T01:44:29.834Z,3.90
2023-01-27T01:45:29.794Z,3.90
2023-01-27T01:46:29.842Z,3.80
2023-01-27T01:47:29.773Z,4.00
2023-01-27T01:48:31.818Z,3.80
2023-01-27T01:49:29.753Z,3.60
2023-01-27T01:50:29.756Z,4.10
2023-01-27T01:51:29.774Z,3.50
2023-01-27T01:52:29.748Z,3.70
2023-01-27T01:53:29.713Z,3.40
2023-01-27T01:54:29.718Z,3.60
2023-01-27T01:55:29.694Z,3.60
2023-01-27T01:56:29.715Z,3.20
2023-01-27T01:57:29.694Z,3.80
2023-01-27T01:58:29.674Z,3.30
2023-01-27T01:59:29.647Z,4.30
2023-01-27T02:00:29.697Z,3.10
2023-01-27T02:01:29.738Z,3.40
2023-01-27T02:02:29.757Z,3.30
2023-01-27T02:03:29.628Z,3.20
2023-01-27T02:04:29.610Z,3.10
2023-01-27T02:05:29.622Z,3.70
2023-01-27T02:06:29.580Z,3.80
2023-01-27T02:07:29.608Z,4.30
2023-01-27T02:08:29.559Z,3.50
2023-01-27T02:09:29.570Z,3.60
2023-01-27T02:10:29.542Z,3.50
2023-01-27T02:11:29.544Z,3.80
2023-01-27T02:12:29.531Z,3.00
2023-01-27T02:13:29.519Z,3.70
2023-01-27T02:14:29.505Z,3.80
2023-01-27T02:15:29.499Z,3.20
2023-01-27T02:16:29.532Z,3.30
2023-01-27T02:17:29.492Z,3.90
2023-01-27T02:18:29.453Z,3.10
2023-01-27T02:19:29.471Z,3.50
2023-01-27T02:20:29.436Z,3.80
2023-01-27T02:21:29.443Z,3.70
2023-01-27T02:22:29.412Z,3.50
2023-01-27T02:23:29.448Z,3.70
2023-01-27T02:24:29.393Z,3.80
2023-01-27T02:25:29.412Z,4.30
2023-01-27T02:26:29.377Z,3.90
2023-01-27T02:27:29.379Z,3.40
2023-01-27T02:28:29.360Z,3.40
2023-01-27T02:29:29.372Z,4.10
2023-01-27T02:30:29.358Z,3.80
2023-01-27T02:31:29.466Z,3.30
2023-01-27T02:32:29.311Z,3.90
2023-01-27T02:33:29.322Z,3.40
2023-01-27T02:34:29.301Z,3.50
2023-01-27T02:35:29.301Z,3.30
2023-01-27T02:36:29.275Z,3.90
2023-01-27T02:37:29.278Z,3.90
2023-01-27T02:38:29.253Z,4.30
2023-01-27T02:39:29.289Z,3.70
2023-01-27T02:40:29.228Z,3.80
2023-01-27T02:41:29.256Z,3.50
2023-01-27T02:42:29.211Z,4.10
2023-01-27T02:43:29.229Z,3.30
2023-01-27T02:44:29.186Z,4.20
2023-01-27T02:45:29.209Z,4.30
2023-01-27T02:46:29.229Z,4.30
2023-01-27T02:47:29.197Z,3.90
2023-01-27T02:48:29.147Z,4.20
2023-01-27T02:49:29.176Z,3.90
2023-01-27T02:50:29.141Z,4.30
2023-01-27T02:51:29.146Z,4.10
2023-01-27T02:52:29.105Z,3.90
2023-01-27T02:53:29.125Z,3.80
2023-01-27T02:54:29.098Z,4.10
2023-01-27T02:55:29.102Z,4.20
2023-01-27T02:56:29.067Z,4.20
2023-01-27T02:57:29.080Z,4.20
2023-01-27T02:58:35.833Z,3.40
2023-01-27T02:59:29.064Z,3.90
2023-01-27T03:00:29.034Z,3.60
2023-01-27T03:01:29.104Z,4.30
2023-01-27T03:02:29.026Z,3.60
2023-01-27T03:03:29.024Z,3.30
2023-01-27T03:04:28.982Z,3.80
2023-01-27T03:05:28.988Z,3.60
2023-01-27T03:06:29.007Z,3.50
2023-01-27T03:07:28.987Z,3.80
2023-01-27T03:08:28.943Z,3.30
2023-01-27T03:09:28.961Z,3.60
2023-01-27T03:10:28.933Z,4.20
2023-01-27T03:11:28.937Z,4.00
2023-01-27T03:12:28.909Z,4.10
2023-01-27T03:13:28.913Z,3.80
2023-01-27T03:14:28.879Z,3.60
2023-01-27T03:15:28.899Z,3.80
2023-01-27T03:16:28.871Z,3.80
2023-01-27T03:17:28.879Z,3.70
2023-01-27T03:18:28.838Z,3.20
2023-01-27T03:19:28.858Z,4.40
2023-01-27T03:20:28.818Z,4.00
2023-01-27T03:21:28.844Z,3.20
2023-01-27T03:22:28.802Z,4.10
2023-01-27T03:23:28.804Z,3.10
2023-01-27T03:24:28.799Z,3.60
2023-01-27T03:25:28.784Z,3.50
2023-01-27T03:26:28.772Z,3.80
2023-01-27T03:27:28.784Z,3.20
2023-01-27T03:28:28.739Z,3.70
2023-01-27T03:29:28.745Z,3.00
2023-01-27T03:30:28.716Z,3.40
2023-01-27T03:31:28.832Z,3.30
2023-01-27T03:32:28.710Z,3.40
2023-01-27T03:33:28.701Z,3.20
2023-01-27T03:34:28.702Z,3.00
2023-01-27T03:35:28.683Z,3.50
2023-01-27T03:36:28.655Z,3.40
2023-01-27T03:37:28.661Z,3.70
2023-01-27T03:38:28.636Z,2.80
2023-01-27T03:39:28.645Z,3.40
2023-01-27T03:40:28.623Z,3.00
2023-01-27T03:41:28.619Z,2.40
2023-01-27T03:42:28.598Z,2.90
2023-01-27T03:43:28.601Z,2.70
2023-01-27T03:44:28.580Z,2.60
2023-01-27T03:45:28.590Z,3.60
2023-01-27T03:46:28.642Z,3.20
2023-01-27T03:47:28.582Z,3.30
2023-01-27T03:48:28.533Z,2.80
2023-01-27T03:49:28.552Z,3.00
2023-01-27T03:50:28.511Z,3.60
2023-01-27T03:51:28.540Z,4.00
2023-01-27T03:52:28.494Z,2.90
2023-01-27T03:53:28.495Z,2.50
2023-01-27T03:54:28.487Z,2.80
2023-01-27T03:55:28.497Z,2.40
2023-01-27T03:56:28.455Z,3.80
2023-01-27T03:57:28.470Z,3.10
2023-01-27T03:58:28.430Z,3.20
2023-01-27T03:59:28.449Z,3.20
2023-01-27T04:00:28.417Z,2.80
2023-01-27T04:01:28.470Z,2.60
2023-01-27T04:02:28.429Z,2.90
2023-01-27T04:03:28.414Z,2.70
2023-01-27T04:04:28.382Z,2.80
2023-01-27T04:05:28.390Z,3.00
2023-01-27T04:06:28.362Z,2.70
2023-01-27T04:07:28.371Z,2.70
2023-01-27T04:08:28.327Z,3.30
2023-01-27T04:09:28.348Z,2.50
2023-01-27T04:10:28.320Z,3.10
2023-01-27T04:11:30.303Z,3.00
2023-01-27T04:12:28.287Z,2.50
2023-01-27T04:13:28.306Z,2.80
2023-01-27T04:14:28.274Z,2.70
2023-01-27T04:15:28.274Z,2.40
2023-01-27T04:16:28.251Z,2.80
2023-01-27T04:17:28.272Z,2.50
2023-01-27T04:18:28.231Z,2.80
2023-01-27T04:19:28.249Z,2.70
2023-01-27T04:20:28.211Z,2.90
2023-01-27T04:21:28.213Z,2.70
2023-01-27T04:22:28.202Z,2.50
2023-01-27T04:23:28.206Z,2.90
2023-01-27T04:24:28.280Z,2.40
2023-01-27T04:25:28.181Z,3.20
2023-01-27T04:26:28.148Z,2.10
2023-01-27T04:27:28.189Z,2.90
2023-01-27T04:28:43.299Z,3.20
2023-01-27T04:29:28.173Z,3.10
2023-01-27T04:30:28.106Z,3.20
2023-01-27T04:31:28.156Z,2.50
2023-01-27T04:32:28.094Z,2.60
2023-01-27T04:33:28.118Z,2.90
2023-01-27T04:34:28.071Z,2.50
2023-01-27T04:35:38.407Z,2.80
2023-01-27T04:36:28.052Z,2.60
2023-01-27T04:37:28.064Z,2.50
2023-01-27T04:38:28.045Z,3.10
2023-01-27T04:39:28.027Z,2.50
2023-01-27T04:40:28.004Z,2.60
2023-01-27T04:41:28.012Z,3.00
2023-01-27T04:42:27.984Z,2.30
2023-01-27T04:43:27.997Z,2.90
2023-01-27T04:44:27.973Z,2.30
2023-01-27T04:45:27.996Z,2.80
2023-01-27T04:46:27.941Z,2.80
2023-01-27T04:47:27.969Z,2.60
2023-01-27T04:48:27.928Z,2.80
2023-01-27T04:49:27.945Z,2.70
2023-01-27T04:50:27.902Z,3.20
2023-01-27T04:51:27.938Z,2.20
2023-01-27T04:52:27.883Z,2.40
2023-01-27T04:53:27.901Z,2.50
2023-01-27T04:54:27.886Z,2.80
2023-01-27T04:55:27.863Z,3.00
2023-01-27T04:56:27.846Z,2.60
2023-01-27T04:57:27.844Z,2.90
2023-01-27T04:58:27.819Z,3.00
2023-01-27T04:59:27.882Z,2.40
2023-01-27T05:00:27.807Z,2.90
2023-01-27T05:01:27.863Z,2.60
2023-01-27T05:02:27.778Z,3.20
2023-01-27T05:03:27.785Z,2.80
2023-01-27T05:04:27.810Z,2.50
2023-01-27T05:05:27.779Z,3.50
2023-01-27T05:06:27.739Z,2.70
2023-01-27T05:07:27.758Z,2.80
2023-01-27T05:08:27.719Z,2.90
2023-01-27T05:09:27.736Z,2.90
2023-01-27T05:10:27.706Z,2.30
2023-01-27T05:11:27.717Z,2.90
2023-01-27T05:12:27.681Z,3.10
2023-01-27T05:13:27.709Z,3.00
2023-01-27T05:14:27.659Z,2.80
2023-01-27T05:15:27.699Z,2.50
2023-01-27T05:16:27.877Z,2.90
2023-01-27T05:17:27.650Z,3.00
2023-01-27T05:18:27.616Z,3.20
2023-01-27T05:19:27.618Z,2.60
2023-01-27T05:20:27.601Z,2.60
2023-01-27T05:21:27.599Z,3.30
2023-01-27T05:22:27.588Z,3.60
2023-01-27T05:23:27.592Z,3.20
2023-01-27T05:24:27.614Z,3.10
2023-01-27T05:25:27.563Z,3.40
2023-01-27T05:26:27.615Z,3.30
2023-01-27T05:27:27.566Z,2.60
2023-01-27T05:28:28.418Z,2.70
2023-01-27T05:29:27.536Z,3.40
2023-01-27T05:30:27.492Z,2.60
2023-01-27T05:31:27.683Z,3.50
2023-01-27T05:32:27.482Z,3.00
2023-01-27T05:33:27.506Z,3.00
2023-01-27T05:34:27.464Z,2.80
2023-01-27T05:35:27.467Z,2.80
2023-01-27T05:36:27.456Z,3.20
2023-01-27T05:37:27.451Z,2.90
2023-01-27T05:38:27.428Z,2.80
2023-01-27T05:39:27.417Z,2.60
2023-01-27T05:40:27.399Z,2.40
2023-01-27T05:41:27.396Z,3.10
2023-01-27T05:42:27.387Z,2.80
2023-01-27T05:43:27.375Z,3.60
2023-01-27T05:44:27.347Z,3.20
2023-01-27T05:45:27.354Z,2.90
2023-01-27T05:46:27.474Z,3.00
2023-01-27T05:47:27.347Z,2.90
2023-01-27T05:48:27.319Z,3.00
2023-01-27T05:49:27.333Z,2.80
2023-01-27T05:50:27.290Z,3.60
2023-01-27T05:51:27.296Z,3.30
2023-01-27T05:52:27.267Z,2.40
2023-01-27T05:53:27.287Z,2.10
2023-01-27T05:54:27.248Z,3.10
2023-01-27T05:55:27.265Z,3.00
2023-01-27T05:56:27.236Z,4.00
2023-01-27T05:57:27.233Z,2.90
2023-01-27T05:58:27.215Z,2.30
2023-01-27T05:59:27.230Z,2.80
2023-01-27T06:00:27.186Z,2.70
2023-01-27T06:01:27.219Z,2.90
2023-01-27T06:02:27.175Z,3.30
2023-01-27T06:03:27.174Z,2.50
2023-01-27T06:04:27.145Z,3.60
2023-01-27T06:05:27.173Z,2.50
2023-01-27T06:06:27.143Z,3.30
2023-01-27T06:07:27.144Z,3.30
2023-01-27T06:08:27.104Z,2.90
2023-01-27T06:09:27.114Z,2.70
2023-01-27T06:10:27.097Z,2.90
2023-01-27T06:11:27.109Z,3.00
2023-01-27T06:12:27.065Z,2.60
2023-01-27T06:13:27.081Z,3.00
2023-01-27T06:14:27.062Z,3.10
2023-01-27T06:15:27.054Z,2.40
2023-01-27T06:16:27.043Z,3.00
2023-01-27T06:17:27.028Z,2.70
2023-01-27T06:18:27.004Z,3.30
2023-01-27T06:19:26.996Z,2.90
2023-01-27T06:20:27.025Z,2.70
2023-01-27T06:21:27.002Z,3.10
2023-01-27T06:22:26.992Z,3.00
2023-01-27T06:23:26.954Z,2.60
2023-01-27T06:24:27.006Z,2.90
2023-01-27T06:25:26.950Z,2.70
2023-01-27T06:26:26.938Z,3.20
2023-01-27T06:27:26.911Z,2.80
2023-01-27T06:28:29.701Z,4.00
2023-01-27T06:29:26.891Z,2.90
2023-01-27T06:30:26.901Z,2.70
2023-01-27T06:31:26.964Z,3.10
2023-01-27T06:32:26.822Z,2.90
2023-01-27T06:33:26.858Z,2.80
2023-01-27T06:34:26.872Z,2.10
2023-01-27T06:35:26.838Z,3.30
2023-01-27T06:36:26.864Z,2.70
2023-01-27T06:37:26.815Z,2.60
2023-01-27T06:38:26.823Z,3.10
2023-01-27T06:39:26.752Z,2.70
2023-01-27T06:40:26.745Z,2.60
2023-01-27T06:41:26.739Z,3.20
2023-01-27T06:42:26.739Z,2.60
2023-01-27T06:43:26.706Z,3.20
2023-01-27T06:44:26.716Z,2.60
2023-01-27T06:45:26.680Z,2.60
2023-01-27T06:46:26.695Z,2.90
2023-01-27T06:47:26.677Z,2.70
2023-01-27T06:48:26.678Z,2.50
2023-01-27T06:49:26.649Z,2.60
2023-01-27T06:50:26.656Z,2.50
2023-01-27T06:51:26.622Z,2.50
2023-01-27T06:52:26.640Z,2.70
2023-01-27T06:53:26.611Z,2.30
2023-01-27T06:54:26.628Z,2.90
2023-01-27T06:55:26.595Z,2.90
2023-01-27T06:56:26.619Z,2.80
2023-01-27T06:57:26.572Z,2.80
2023-01-27T06:58:26.576Z,2.60
2023-01-27T06:59:26.551Z,3.10
2023-01-27T07:00:26.558Z,3.20
2023-01-27T07:01:26.559Z,2.60
2023-01-27T07:02:26.550Z,2.90
2023-01-27T07:03:26.533Z,3.10
2023-01-27T07:04:26.514Z,3.00
2023-01-27T07:05:26.479Z,2.90
2023-01-27T07:06:26.482Z,2.90
2023-01-27T07:07:26.456Z,2.60
2023-01-27T07:08:26.462Z,2.70
2023-01-27T07:09:26.454Z,2.40
2023-01-27T07:10:26.464Z,3.00
2023-01-27T07:11:26.421Z,2.80
2023-01-27T07:12:26.435Z,2.80
2023-01-27T07:13:26.399Z,2.80
2023-01-27T07:14:26.416Z,3.00
2023-01-27T07:15:26.397Z,2.60
2023-01-27T07:16:26.439Z,3.00
2023-01-27T07:17:26.358Z,3.30
2023-01-27T07:18:26.358Z,3.10
2023-01-27T07:19:26.339Z,3.50
2023-01-27T07:20:26.348Z,3.20
2023-01-27T07:21:26.327Z,3.30
2023-01-27T07:22:26.335Z,2.90
2023-01-27T07:23:26.302Z,3.30
2023-01-27T07:24:26.377Z,3.00
2023-01-27T07:25:26.281Z,3.20
2023-01-27T07:26:26.281Z,3.30
2023-01-27T07:27:26.285Z,3.30
2023-01-27T07:28:26.263Z,3.00
2023-01-27T07:29:26.251Z,3.80
2023-01-27T07:30:26.249Z,2.90
2023-01-27T07:31:26.372Z,3.10
2023-01-27T07:32:28.167Z,3.70
2023-01-27T07:33:26.195Z,3.20
2023-01-27T07:34:26.216Z,3.10
2023-01-27T07:35:26.188Z,3.20
2023-01-27T07:36:26.182Z,2.60
2023-01-27T07:37:26.163Z,3.10
2023-01-27T07:38:26.159Z,3.20
2023-01-27T07:39:26.146Z,2.80
2023-01-27T07:40:26.157Z,3.40
2023-01-27T07:41:26.157Z,3.10
2023-01-27T07:42:26.138Z,3.40
2023-01-27T07:43:26.098Z,2.70
2023-01-27T07:44:26.103Z,3.00
2023-01-27T07:45:26.110Z,3.70
2023-01-27T07:46:26.093Z,3.40
2023-01-27T07:47:26.060Z,2.90
2023-01-27T07:48:26.072Z,2.90
2023-01-27T07:49:27.554Z,3.60
2023-01-27T07:50:26.072Z,3.10
2023-01-27T07:51:26.026Z,2.70
2023-01-27T07:52:26.022Z,3.10
2023-01-27T07:53:26.009Z,3.00
2023-01-27T07:54:26.019Z,2.90
2023-01-27T07:55:25.991Z,3.20
2023-01-27T07:56:25.990Z,3.20
2023-01-27T07:57:25.966Z,3.00
2023-01-27T07:58:25.992Z,2.90
2023-01-27T07:59:25.941Z,3.00
2023-01-27T08:00:25.969Z,2.80
2023-01-27T08:01:25.939Z,3.80
2023-01-27T08:02:25.946Z,3.00
2023-01-27T08:03:26.001Z,2.90
2023-01-27T08:04:25.917Z,3.00
2023-01-27T08:05:25.881Z,3.30
2023-01-27T08:06:25.884Z,2.90
2023-01-27T08:07:25.854Z,3.00
2023-01-27T08:08:25.887Z,3.30
2023-01-27T08:09:25.846Z,2.60
2023-01-27T08:10:25.843Z,3.10
2023-01-27T08:11:25.819Z,2.60
2023-01-27T08:12:25.845Z,2.90
2023-01-27T08:13:25.844Z,3.10
2023-01-27T08:14:25.837Z,2.60
2023-01-27T08:15:25.778Z,2.80
2023-01-27T08:16:25.873Z,3.50
2023-01-27T08:17:25.761Z,3.60
2023-01-27T08:18:25.773Z,3.80
2023-01-27T08:19:25.735Z,2.90
2023-01-27T08:20:25.796Z,3.20
2023-01-27T08:21:25.721Z,3.10
2023-01-27T08:22:25.756Z,3.00
2023-01-27T08:23:25.704Z,3.30
2023-01-27T08:24:25.760Z,3.10
2023-01-27T08:25:25.695Z,2.80
2023-01-27T08:26:25.731Z,3.00
2023-01-27T08:27:25.670Z,3.20
2023-01-27T08:28:25.682Z,3.30
2023-01-27T08:29:25.653Z,2.60
2023-01-27T08:30:25.697Z,3.50
2023-01-27T08:31:25.699Z,2.60
2023-01-27T08:32:25.662Z,3.00
2023-01-27T08:33:25.599Z,3.40
2023-01-27T08:34:25.654Z,2.90
2023-01-27T08:35:25.591Z,2.50
2023-01-27T08:36:25.595Z,2.90
2023-01-27T08:37:25.568Z,3.40
2023-01-27T08:38:25.564Z,2.50
2023-01-27T08:39:25.552Z,2.50
2023-01-27T08:40:25.610Z,2.90
2023-01-27T08:41:25.528Z,3.10
2023-01-27T08:42:25.543Z,3.40
2023-01-27T08:43:25.504Z,3.70
2023-01-27T08:44:25.520Z,2.40
2023-01-27T08:45:25.495Z,2.30
2023-01-27T08:46:25.489Z,3.50
2023-01-27T08:47:25.459Z,2.90
2023-01-27T08:48:25.462Z,3.10
2023-01-27T08:49:25.452Z,2.70
2023-01-27T08:50:25.462Z,2.70
2023-01-27T08:51:25.435Z,3.20
2023-01-27T08:52:25.430Z,3.10
2023-01-27T08:53:25.402Z,2.70
2023-01-27T08:54:25.403Z,2.80
2023-01-27T08:55:25.412Z,3.10
2023-01-27T08:56:25.389Z,2.70
2023-01-27T08:57:25.370Z,3.10
2023-01-27T08:58:25.380Z,3.90
2023-01-27T08:59:25.342Z,3.80
2023-01-27T09:00:25.361Z,3.60
2023-01-27T09:01:25.418Z,4.20
2023-01-27T09:02:25.341Z,3.60
2023-01-27T09:03:25.301Z,3.40
2023-01-27T09:04:25.336Z,2.90
2023-01-27T09:05:25.294Z,2.60
2023-01-27T09:06:25.320Z,3.30
2023-01-27T09:07:25.260Z,3.00
2023-01-27T09:08:25.283Z,3.00
2023-01-27T09:09:25.247Z,2.80
2023-01-27T09:10:25.620Z,3.40
2023-01-27T09:11:25.223Z,3.20
2023-01-27T09:12:25.240Z,2.80
2023-01-27T09:13:25.204Z,2.80
2023-01-27T09:14:25.221Z,3.00
2023-01-27T09:15:25.190Z,2.80
2023-01-27T09:16:25.249Z,3.00
2023-01-27T09:17:25.159Z,2.90
2023-01-27T09:18:25.192Z,2.60
2023-01-27T09:19:25.138Z,2.20
2023-01-27T09:20:25.173Z,2.50
2023-01-27T09:21:25.116Z,2.80
2023-01-27T09:22:25.131Z,2.60
2023-01-27T09:23:25.097Z,2.40
2023-01-27T09:24:25.131Z,2.70
2023-01-27T09:25:25.084Z,2.70
2023-01-27T09:26:25.098Z,1.90
2023-01-27T09:27:38.232Z,2.10
2023-01-27T09:28:25.069Z,2.40
2023-01-27T09:29:25.037Z,3.30
2023-01-27T09:30:25.148Z,2.60
2023-01-27T09:31:25.128Z,2.50
2023-01-27T09:32:25.017Z,2.90
2023-01-27T09:33:25.005Z,2.60
2023-01-27T09:34:24.997Z,2.40
2023-01-27T09:35:24.972Z,2.60
2023-01-27T09:36:24.979Z,2.50
2023-01-27T09:37:26.891Z,2.90
2023-01-27T09:38:24.971Z,2.30
2023-01-27T09:39:24.939Z,2.70
2023-01-27T09:40:24.937Z,2.20
2023-01-27T09:41:24.905Z,2.40
2023-01-27T09:42:24.925Z,2.60
2023-01-27T09:43:24.890Z,2.80
2023-01-27T09:44:24.898Z,2.70
2023-01-27T09:45:24.868Z,3.00
2023-01-27T09:46:24.938Z,2.50
2023-01-27T09:47:24.852Z,2.70
2023-01-27T09:48:24.849Z,2.60
2023-01-27T09:49:24.836Z,2.30
2023-01-27T09:50:24.854Z,2.60
2023-01-27T09:51:24.801Z,3.00
2023-01-27T09:52:25.436Z,3.20
2023-01-27T09:53:24.783Z,2.40
2023-01-27T09:54:24.808Z,3.00
2023-01-27T09:55:24.766Z,2.90
2023-01-27T09:56:24.765Z,2.50
2023-01-27T09:57:24.759Z,2.30
2023-01-27T09:58:24.952Z,2.00
2023-01-27T09:59:24.718Z,2.30
2023-01-27T10:00:24.735Z,2.20
2023-01-27T10:01:24.715Z,2.30
2023-01-27T10:02:24.715Z,2.90
2023-01-27T10:03:24.673Z,2.70
2023-01-27T10:04:24.734Z,2.80
2023-01-27T10:05:24.654Z,2.00
2023-01-27T10:06:24.662Z,2.70
2023-01-27T10:07:24.657Z,2.20
2023-01-27T10:08:24.664Z,2.60
2023-01-27T10:09:24.618Z,2.70
2023-01-27T10:10:24.629Z,2.70
2023-01-27T10:11:24.598Z,2.90
2023-01-27T10:12:24.604Z,2.90
2023-01-27T10:13:24.591Z,2.30
2023-01-27T10:14:24.577Z,2.50
2023-01-27T10:15:24.557Z,2.60
2023-01-27T10:16:24.629Z,2.80
2023-01-27T10:17:24.535Z,3.20
2023-01-27T10:18:24.554Z,2.90
2023-01-27T10:19:24.512Z,2.50
2023-01-27T10:20:24.511Z,2.20
2023-01-27T10:21:24.483Z,2.50
2023-01-27T10:22:24.504Z,2.70
2023-01-27T10:23:24.468Z,2.40
2023-01-27T10:24:24.504Z,2.60
2023-01-27T10:25:24.452Z,2.30
2023-01-27T10:26:24.459Z,2.30
2023-01-27T10:27:24.426Z,2.10
2023-01-27T10:28:24.438Z,2.80
2023-01-27T10:29:24.395Z,2.00
2023-01-27T10:30:24.425Z,2.30
2023-01-27T10:31:24.416Z,2.50
2023-01-27T10:32:24.382Z,2.10
2023-01-27T10:33:24.364Z,2.70
2023-01-27T10:34:24.368Z,1.70
2023-01-27T10:35:24.376Z,2.00
2023-01-27T10:36:24.351Z,2.10
2023-01-27T10:37:24.345Z,2.20
2023-01-27T10:38:24.303Z,2.20
2023-01-27T10:39:24.315Z,2.30
2023-01-27T10:40:24.287Z,2.60
2023-01-27T10:41:24.287Z,2.20
2023-01-27T10:42:24.272Z,1.90
2023-01-27T10:43:24.286Z,2.30
2023-01-27T10:44:24.249Z,2.10
2023-01-27T10:45:24.296Z,2.10
2023-01-27T10:46:24.285Z,2.20
2023-01-27T10:47:24.253Z,2.00
2023-01-27T10:48:24.210Z,2.00
2023-01-27T10:49:24.381Z,1.80
2023-01-27T10:50:24.191Z,2.40
2023-01-27T10:51:24.199Z,1.90
2023-01-27T10:52:24.170Z,2.20
2023-01-27T10:53:24.202Z,2.30
2023-01-27T10:54:24.142Z,1.70
2023-01-27T10:55:24.206Z,2.20
2023-01-27T10:56:24.116Z,1.60
2023-01-27T10:57:24.158Z,2.00
2023-01-27T10:58:24.094Z,1.80
2023-01-27T10:59:24.122Z,1.80
2023-01-27T11:01:24.130Z,1.90
2023-01-27T11:02:24.085Z,1.80
2023-01-27T11:03:24.153Z,2.00
2023-01-27T11:04:24.088Z,1.90
2023-01-27T11:05:24.076Z,1.90
2023-01-27T11:06:24.026Z,1.90
2023-01-27T11:07:24.072Z,2.00
2023-01-27T11:08:24.003Z,1.80
2023-01-27T11:09:24.133Z,1.80
2023-01-27T11:10:23.974Z,2.10
2023-01-27T11:11:23.989Z,1.60
2023-01-27T11:12:23.953Z,2.20
2023-01-27T11:13:24.024Z,2.30
2023-01-27T11:14:24.026Z,1.70
2023-01-27T11:15:23.981Z,2.20
2023-01-27T11:16:24.026Z,2.00
2023-01-27T11:17:23.954Z,2.10
2023-01-27T11:18:23.925Z,2.20
2023-01-27T11:19:23.921Z,1.80
2023-01-27T11:20:23.878Z,1.90
2023-01-27T11:21:23.891Z,1.80
2023-01-27T11:22:23.841Z,2.20
2023-01-27T11:23:23.968Z,1.70
2023-01-27T11:24:23.870Z,2.30
2023-01-27T11:25:23.852Z,2.10
2023-01-27T11:26:23.973Z,1.70
2023-01-27T11:27:23.841Z,1.90
2023-01-27T11:28:23.779Z,2.10
2023-01-27T11:29:23.816Z,1.60
2023-01-27T11:30:23.832Z,1.70
2023-01-27T11:31:23.857Z,1.80
2023-01-27T11:32:23.741Z,2.10
2023-01-27T11:33:23.767Z,1.80
2023-01-27T11:34:23.731Z,1.70
2023-01-27T11:35:23.746Z,1.40
2023-01-27T11:36:23.706Z,1.70
2023-01-27T11:37:23.699Z,2.00
2023-01-27T11:38:23.680Z,1.40
2023-01-27T11:39:23.686Z,2.00
2023-01-27T11:40:23.663Z,1.90
2023-01-27T11:41:23.669Z,1.90
2023-01-27T11:42:23.646Z,1.50
2023-01-27T11:43:23.648Z,1.80
2023-01-27T11:44:23.622Z,1.80
2023-01-27T11:45:23.624Z,1.80
2023-01-27T11:46:23.589Z,1.50
2023-01-27T11:47:23.610Z,1.40
2023-01-27T11:48:23.752Z,1.50
2023-01-27T11:49:23.573Z,1.60
2023-01-27T11:50:23.561Z,1.80
2023-01-27T11:51:23.575Z,2.20
2023-01-27T11:52:23.534Z,1.60
2023-01-27T11:53:23.536Z,1.50
2023-01-27T11:54:23.522Z,1.70
2023-01-27T11:55:23.510Z,1.80
2023-01-27T11:56:23.495Z,1.40
2023-01-27T11:57:23.491Z,1.90
2023-01-27T11:58:23.474Z,2.20
2023-01-27T11:59:23.483Z,1.70
2023-01-27T12:00:23.444Z,1.80
2023-01-27T12:01:23.459Z,1.90
2023-01-27T12:02:23.422Z,1.70
2023-01-27T12:03:23.499Z,1.50
2023-01-27T12:04:23.435Z,1.90
2023-01-27T12:05:23.415Z,1.10
2023-01-27T12:06:23.404Z,1.70
2023-01-27T12:07:23.417Z,1.80
2023-01-27T12:08:23.363Z,2.10
2023-01-27T12:09:23.361Z,1.20
2023-01-27T12:10:23.333Z,1.80
2023-01-27T12:11:23.343Z,1.70
2023-01-27T12:12:23.373Z,2.00
2023-01-27T12:13:23.332Z,1.90
2023-01-27T12:14:23.292Z,2.20
2023-01-27T12:15:23.311Z,1.80
2023-01-27T12:16:23.393Z,2.10
2023-01-27T12:17:23.290Z,2.10
2023-01-27T12:18:23.252Z,2.30
2023-01-27T12:19:23.254Z,2.00
2023-01-27T12:20:23.228Z,1.90
2023-01-27T12:21:23.232Z,1.90
2023-01-27T12:22:23.348Z,1.40
2023-01-27T12:23:23.227Z,2.10
2023-01-27T12:24:23.294Z,2.10
2023-01-27T12:25:23.203Z,1.90
2023-01-27T12:26:23.166Z,2.20
2023-01-27T12:27:23.171Z,2.40
2023-01-27T12:28:23.154Z,2.00
2023-01-27T12:29:23.166Z,2.00
2023-01-27T12:30:23.131Z,1.60
2023-01-27T12:31:23.245Z,2.20
2023-01-27T12:32:23.098Z,1.90
2023-01-27T12:33:23.132Z,2.30
2023-01-27T12:34:23.094Z,2.10
2023-01-27T12:35:23.087Z,2.30
2023-01-27T12:36:23.073Z,1.70
2023-01-27T12:37:23.064Z,2.10
2023-01-27T12:38:23.056Z,1.70
2023-01-27T12:39:23.067Z,1.40
2023-01-27T12:40:23.017Z,1.80
2023-01-27T12:41:23.021Z,1.50
2023-01-27T12:42:22.995Z,1.60
2023-01-27T12:43:23.036Z,2.10
2023-01-27T12:44:23.101Z,2.20
2023-01-27T12:45:23.010Z,1.80
2023-01-27T12:46:22.984Z,2.00
2023-01-27T12:47:23.087Z,2.20
2023-01-27T12:48:22.955Z,2.10
2023-01-27T12:49:22.946Z,1.90
2023-01-27T12:50:22.953Z,2.00
2023-01-27T12:51:22.927Z,1.90
2023-01-27T12:52:22.890Z,1.80
2023-01-27T12:53:22.900Z,1.70
2023-01-27T12:54:22.882Z,2.20
2023-01-27T12:55:22.875Z,1.90
2023-01-27T12:56:22.848Z,1.80
2023-01-27T12:57:22.863Z,1.60
2023-01-27T12:58:22.824Z,2.00
2023-01-27T12:59:22.843Z,2.10
2023-01-27T13:00:22.817Z,2.10
2023-01-27T13:01:22.813Z,2.30
2023-01-27T13:02:22.931Z,2.10
2023-01-27T13:03:22.840Z,2.00
2023-01-27T13:04:22.777Z,2.60
2023-01-27T13:05:22.766Z,2.20
2023-01-27T13:06:22.747Z,1.70
2023-01-27T13:07:22.759Z,1.60
2023-01-27T13:08:22.718Z,1.60
2023-01-27T13:09:22.722Z,1.60
2023-01-27T13:10:22.721Z,2.00
2023-01-27T13:11:22.733Z,1.80
2023-01-27T13:12:22.691Z,2.10
2023-01-27T13:13:22.695Z,2.20
2023-01-27T13:14:22.655Z,1.80
2023-01-27T13:15:22.683Z,2.00
2023-01-27T13:16:22.703Z,2.60
2023-01-27T13:17:22.686Z,2.20
2023-01-27T13:18:22.670Z,1.90
2023-01-27T13:19:22.644Z,1.70